Terminal Aerodrome Forecast
Issued by NWS

Current Version | Previous Version | Graphics & Text | Print | Product List | Glossary On
Versions: 1 2 3 4 5 6 7 8 9 10 11 12 13 14 15 16 17 18 19 20 21
000
FTUS41 KPBZ 211900 AAB
TAFHLG
TAF AMD
KHLG 211923Z 2119/2218 27012G22KT P6SM SCT035
     FM212200 28015G25KT P6SM BKN040
     FM220500 31010KT P6SM BKN025=

USA.gov is the U.S. government's official web portal to all federal, state and local government web resources and services.